sensor_id;sensor_type;location;lat;lon;timestamp;P1;durP1;ratioP1;P2;durP2;ratioP2
22138;SDS011;25815;52.582;13.408;2023-05-07T00:01:40;15.18;;;11.88;;
22138;SDS011;25815;52.582;13.408;2023-05-07T00:04:06;14.93;;;11.27;;
22138;SDS011;25815;52.582;13.408;2023-05-07T00:06:32;16.83;;;12.13;;
22138;SDS011;25815;52.582;13.408;2023-05-07T00:08:58;16.95;;;11.38;;
22138;SDS011;25815;52.582;13.408;2023-05-07T00:11:25;17.80;;;12.15;;
22138;SDS011;25815;52.582;13.408;2023-05-07T00:13:51;15.23;;;11.57;;
22138;SDS011;25815;52.582;13.408;2023-05-07T00:16:17;17.15;;;11.52;;
22138;SDS011;25815;52.582;13.408;2023-05-07T00:18:43;15.48;;;11.73;;
22138;SDS011;25815;52.582;13.408;2023-05-07T00:21:10;14.68;;;11.05;;
22138;SDS011;25815;52.582;13.408;2023-05-07T00:23:36;18.38;;;10.90;;
22138;SDS011;25815;52.582;13.408;2023-05-07T00:26:02;15.18;;;11.05;;
22138;SDS011;25815;52.582;13.408;2023-05-07T00:28:28;15.98;;;11.23;;
22138;SDS011;25815;52.582;13.408;2023-05-07T00:30:54;16.98;;;11.10;;
22138;SDS011;25815;52.582;13.408;2023-05-07T00:33:20;14.10;;;11.27;;
22138;SDS011;25815;52.582;13.408;2023-05-07T00:35:47;15.07;;;11.13;;
22138;SDS011;25815;52.582;13.408;2023-05-07T00:38:13;13.48;;;10.70;;
22138;SDS011;25815;52.582;13.408;2023-05-07T00:40:39;18.20;;;11.63;;
22138;SDS011;25815;52.582;13.408;2023-05-07T00:43:05;18.35;;;11.85;;
22138;SDS011;25815;52.582;13.408;2023-05-07T00:45:32;15.27;;;11.35;;
22138;SDS011;25815;52.582;13.408;2023-05-07T00:47:59;13.88;;;10.70;;
22138;SDS011;25815;52.582;13.408;2023-05-07T00:50:25;13.88;;;11.27;;
22138;SDS011;25815;52.582;13.408;2023-05-07T00:52:52;16.90;;;11.82;;
22138;SDS011;25815;52.582;13.408;2023-05-07T00:55:18;14.18;;;11.25;;
22138;SDS011;25815;52.582;13.408;2023-05-07T00:57:45;14.25;;;11.10;;
22138;SDS011;25815;52.582;13.408;2023-05-07T01:00:11;13.63;;;11.25;;
22138;SDS011;25815;52.582;13.408;2023-05-07T01:02:40;15.32;;;10.57;;
22138;SDS011;25815;52.582;13.408;2023-05-07T01:05:07;15.07;;;11.88;;
22138;SDS011;25815;52.582;13.408;2023-05-07T01:07:34;15.45;;;10.93;;
22138;SDS011;25815;52.582;13.408;2023-05-07T01:10:01;16.55;;;11.52;;
22138;SDS011;25815;52.582;13.408;2023-05-07T01:12:27;14.27;;;11.25;;
22138;SDS011;25815;52.582;13.408;2023-05-07T01:14:53;13.23;;;10.48;;
22138;SDS011;25815;52.582;13.408;2023-05-07T01:17:19;15.38;;;10.93;;
22138;SDS011;25815;52.582;13.408;2023-05-07T01:19:45;17.42;;;10.95;;
22138;SDS011;25815;52.582;13.408;2023-05-07T01:22:12;14.27;;;11.05;;
22138;SDS011;25815;52.582;13.408;2023-05-07T01:24:41;13.43;;;10.77;;
22138;SDS011;25815;52.582;13.408;2023-05-07T01:27:07;12.82;;;10.20;;
22138;SDS011;25815;52.582;13.408;2023-05-07T01:29:33;14.70;;;10.80;;
22138;SDS011;25815;52.582;13.408;2023-05-07T01:32:00;15.25;;;10.85;;
22138;SDS011;25815;52.582;13.408;2023-05-07T01:34:30;13.70;;;11.15;;
22138;SDS011;25815;52.582;13.408;2023-05-07T01:36:56;13.00;;;10.27;;
22138;SDS011;25815;52.582;13.408;2023-05-07T01:39:24;16.42;;;10.65;;
22138;SDS011;25815;52.582;13.408;2023-05-07T01:41:51;14.20;;;10.77;;
22138;SDS011;25815;52.582;13.408;2023-05-07T01:44:18;13.98;;;10.48;;
22138;SDS011;25815;52.582;13.408;2023-05-07T01:46:45;14.73;;;11.02;;
22138;SDS011;25815;52.582;13.408;2023-05-07T01:49:11;14.93;;;10.80;;
22138;SDS011;25815;52.582;13.408;2023-05-07T01:51:36;13.80;;;10.35;;
22138;SDS011;25815;52.582;13.408;2023-05-07T01:54:02;13.98;;;10.65;;
22138;SDS011;25815;52.582;13.408;2023-05-07T01:56:28;15.98;;;11.55;;
22138;SDS011;25815;52.582;13.408;2023-05-07T01:58:54;13.38;;;11.13;;
22138;SDS011;25815;52.582;13.408;2023-05-07T02:01:20;12.38;;;10.23;;
22138;SDS011;25815;52.582;13.408;2023-05-07T02:03:46;13.48;;;9.57;;
22138;SDS011;25815;52.582;13.408;2023-05-07T02:06:12;14.23;;;11.02;;
22138;SDS011;25815;52.582;13.408;2023-05-07T02:08:38;14.68;;;11.02;;
22138;SDS011;25815;52.582;13.408;2023-05-07T02:11:04;15.13;;;10.50;;
22138;SDS011;25815;52.582;13.408;2023-05-07T02:13:32;14.30;;;10.52;;
22138;SDS011;25815;52.582;13.408;2023-05-07T02:15:58;13.55;;;10.02;;
22138;SDS011;25815;52.582;13.408;2023-05-07T02:18:24;12.75;;;10.10;;
22138;SDS011;25815;52.582;13.408;2023-05-07T02:20:50;15.18;;;9.40;;
22138;SDS011;25815;52.582;13.408;2023-05-07T02:23:16;14.75;;;9.35;;
22138;SDS011;25815;52.582;13.408;2023-05-07T02:25:42;19.95;;;10.98;;
22138;SDS011;25815;52.582;13.408;2023-05-07T02:28:08;15.23;;;10.30;;
22138;SDS011;25815;52.582;13.408;2023-05-07T02:30:34;15.13;;;10.00;;
22138;SDS011;25815;52.582;13.408;2023-05-07T02:32:59;12.82;;;9.70;;
22138;SDS011;25815;52.582;13.408;2023-05-07T02:35:25;14.32;;;10.10;;
22138;SDS011;25815;52.582;13.408;2023-05-07T02:37:51;12.73;;;10.15;;
22138;SDS011;25815;52.582;13.408;2023-05-07T02:40:17;13.18;;;9.25;;
22138;SDS011;25815;52.582;13.408;2023-05-07T02:42:43;13.77;;;9.65;;
22138;SDS011;25815;52.582;13.408;2023-05-07T02:45:09;11.82;;;9.27;;
22138;SDS011;25815;52.582;13.408;2023-05-07T02:47:35;12.57;;;9.35;;
22138;SDS011;25815;52.582;13.408;2023-05-07T02:50:01;11.60;;;9.05;;
22138;SDS011;25815;52.582;13.408;2023-05-07T02:52:27;13.68;;;9.27;;
22138;SDS011;25815;52.582;13.408;2023-05-07T02:54:53;12.65;;;9.15;;
22138;SDS011;25815;52.582;13.408;2023-05-07T02:57:19;11.73;;;8.32;;
22138;SDS011;25815;52.582;13.408;2023-05-07T02:59:46;11.30;;;8.27;;
22138;SDS011;25815;52.582;13.408;2023-05-07T03:02:12;13.68;;;9.13;;
22138;SDS011;25815;52.582;13.408;2023-05-07T03:04:39;9.63;;;8.40;;
22138;SDS011;25815;52.582;13.408;2023-05-07T03:07:05;12.23;;;8.32;;
22138;SDS011;25815;52.582;13.408;2023-05-07T03:09:31;10.10;;;8.73;;
22138;SDS011;25815;52.582;13.408;2023-05-07T03:11:57;14.25;;;8.20;;
22138;SDS011;25815;52.582;13.408;2023-05-07T03:14:23;11.93;;;8.45;;
22138;SDS011;25815;52.582;13.408;2023-05-07T03:16:49;13.13;;;8.43;;
22138;SDS011;25815;52.582;13.408;2023-05-07T03:19:15;11.25;;;7.85;;
22138;SDS011;25815;52.582;13.408;2023-05-07T03:21:41;11.05;;;8.27;;
22138;SDS011;25815;52.582;13.408;2023-05-07T03:24:07;11.43;;;8.68;;
22138;SDS011;25815;52.582;13.408;2023-05-07T03:26:33;12.52;;;8.73;;
22138;SDS011;25815;52.582;13.408;2023-05-07T03:28:59;10.85;;;7.80;;
22138;SDS011;25815;52.582;13.408;2023-05-07T03:31:25;10.93;;;8.43;;
22138;SDS011;25815;52.582;13.408;2023-05-07T03:36:17;10.30;;;8.02;;
22138;SDS011;25815;52.582;13.408;2023-05-07T03:38:43;10.75;;;8.20;;
22138;SDS011;25815;52.582;13.408;2023-05-07T03:41:09;13.73;;;8.63;;
22138;SDS011;25815;52.582;13.408;2023-05-07T03:43:35;11.70;;;8.70;;
22138;SDS011;25815;52.582;13.408;2023-05-07T03:46:01;12.90;;;8.30;;
22138;SDS011;25815;52.582;13.408;2023-05-07T03:48:26;9.75;;;8.13;;
22138;SDS011;25815;52.582;13.408;2023-05-07T03:50:52;9.95;;;7.50;;
22138;SDS011;25815;52.582;13.408;2023-05-07T03:53:18;10.63;;;8.43;;
22138;SDS011;25815;52.582;13.408;2023-05-07T03:55:44;11.00;;;8.23;;
22138;SDS011;25815;52.582;13.408;2023-05-07T03:58:10;10.50;;;8.32;;
22138;SDS011;25815;52.582;13.408;2023-05-07T04:00:36;10.82;;;7.97;;
22138;SDS011;25815;52.582;13.408;2023-05-07T04:03:04;11.73;;;8.38;;
22138;SDS011;25815;52.582;13.408;2023-05-07T04:05:30;10.10;;;8.00;;
22138;SDS011;25815;52.582;13.408;2023-05-07T04:07:59;9.80;;;7.75;;
22138;SDS011;25815;52.582;13.408;2023-05-07T04:10:25;10.33;;;7.70;;
22138;SDS011;25815;52.582;13.408;2023-05-07T04:12:53;11.70;;;7.90;;
22138;SDS011;25815;52.582;13.408;2023-05-07T04:15:18;11.18;;;7.43;;
22138;SDS011;25815;52.582;13.408;2023-05-07T04:17:44;9.57;;;7.68;;
22138;SDS011;25815;52.582;13.408;2023-05-07T04:20:16;9.55;;;7.22;;
22138;SDS011;25815;52.582;13.408;2023-05-07T04:22:42;8.98;;;7.40;;
22138;SDS011;25815;52.582;13.408;2023-05-07T04:25:09;11.02;;;7.40;;
22138;SDS011;25815;52.582;13.408;2023-05-07T04:27:35;10.00;;;7.55;;
22138;SDS011;25815;52.582;13.408;2023-05-07T04:30:02;10.38;;;7.53;;
22138;SDS011;25815;52.582;13.408;2023-05-07T04:32:28;9.00;;;7.13;;
22138;SDS011;25815;52.582;13.408;2023-05-07T04:34:57;10.25;;;7.80;;
22138;SDS011;25815;52.582;13.408;2023-05-07T04:37:24;11.13;;;7.43;;
22138;SDS011;25815;52.582;13.408;2023-05-07T04:39:51;10.23;;;7.38;;
22138;SDS011;25815;52.582;13.408;2023-05-07T04:42:17;10.57;;;7.45;;
22138;SDS011;25815;52.582;13.408;2023-05-07T04:44:44;13.60;;;7.93;;
22138;SDS011;25815;52.582;13.408;2023-05-07T04:47:10;10.43;;;7.05;;
22138;SDS011;25815;52.582;13.408;2023-05-07T04:49:36;10.00;;;7.25;;
22138;SDS011;25815;52.582;13.408;2023-05-07T04:52:02;9.13;;;7.07;;
22138;SDS011;25815;52.582;13.408;2023-05-07T04:54:28;11.40;;;7.40;;
22138;SDS011;25815;52.582;13.408;2023-05-07T04:56:54;11.40;;;7.05;;
22138;SDS011;25815;52.582;13.408;2023-05-07T04:59:21;10.27;;;6.88;;
22138;SDS011;25815;52.582;13.408;2023-05-07T05:01:47;10.88;;;8.10;;
22138;SDS011;25815;52.582;13.408;2023-05-07T05:04:12;11.20;;;7.65;;
22138;SDS011;25815;52.582;13.408;2023-05-07T05:06:39;10.85;;;7.32;;
22138;SDS011;25815;52.582;13.408;2023-05-07T05:09:05;10.13;;;7.00;;
22138;SDS011;25815;52.582;13.408;2023-05-07T05:11:31;9.93;;;7.18;;
22138;SDS011;25815;52.582;13.408;2023-05-07T05:13:58;10.82;;;7.60;;
22138;SDS011;25815;52.582;13.408;2023-05-07T05:16:25;9.27;;;7.50;;
22138;SDS011;25815;52.582;13.408;2023-05-07T05:18:51;9.40;;;7.22;;
22138;SDS011;25815;52.582;13.408;2023-05-07T05:21:19;10.68;;;7.10;;
22138;SDS011;25815;52.582;13.408;2023-05-07T05:23:44;10.45;;;6.65;;
22138;SDS011;25815;52.582;13.408;2023-05-07T05:26:10;9.98;;;6.70;;
22138;SDS011;25815;52.582;13.408;2023-05-07T05:28:36;11.60;;;6.90;;
22138;SDS011;25815;52.582;13.408;2023-05-07T05:31:02;7.97;;;6.20;;
22138;SDS011;25815;52.582;13.408;2023-05-07T05:33:28;10.65;;;6.90;;
22138;SDS011;25815;52.582;13.408;2023-05-07T05:35:54;10.55;;;6.75;;
22138;SDS011;25815;52.582;13.408;2023-05-07T05:38:20;8.63;;;6.90;;
22138;SDS011;25815;52.582;13.408;2023-05-07T05:40:46;8.70;;;6.50;;
22138;SDS011;25815;52.582;13.408;2023-05-07T05:43:13;9.98;;;6.68;;
22138;SDS011;25815;52.582;13.408;2023-05-07T05:45:39;9.10;;;6.30;;
22138;SDS011;25815;52.582;13.408;2023-05-07T05:48:05;10.52;;;6.78;;
22138;SDS011;25815;52.582;13.408;2023-05-07T05:50:31;9.57;;;6.95;;
22138;SDS011;25815;52.582;13.408;2023-05-07T05:52:57;10.05;;;6.68;;
22138;SDS011;25815;52.582;13.408;2023-05-07T05:55:23;10.48;;;6.40;;
22138;SDS011;25815;52.582;13.408;2023-05-07T05:57:49;11.82;;;7.35;;
22138;SDS011;25815;52.582;13.408;2023-05-07T06:00:16;8.48;;;6.95;;
22138;SDS011;25815;52.582;13.408;2023-05-07T06:02:42;9.50;;;6.93;;
22138;SDS011;25815;52.582;13.408;2023-05-07T06:05:08;9.57;;;6.65;;
22138;SDS011;25815;52.582;13.408;2023-05-07T06:07:34;11.32;;;7.03;;
22138;SDS011;25815;52.582;13.408;2023-05-07T06:10:00;9.30;;;6.88;;
22138;SDS011;25815;52.582;13.408;2023-05-07T06:12:26;9.73;;;6.85;;
22138;SDS011;25815;52.582;13.408;2023-05-07T06:14:52;9.45;;;6.32;;
22138;SDS011;25815;52.582;13.408;2023-05-07T06:17:18;10.63;;;6.97;;
22138;SDS011;25815;52.582;13.408;2023-05-07T06:19:44;10.38;;;6.55;;
22138;SDS011;25815;52.582;13.408;2023-05-07T06:22:10;8.85;;;6.70;;
22138;SDS011;25815;52.582;13.408;2023-05-07T06:24:36;8.88;;;6.30;;
22138;SDS011;25815;52.582;13.408;2023-05-07T06:27:02;9.35;;;7.07;;
22138;SDS011;25815;52.582;13.408;2023-05-07T06:29:28;7.43;;;6.07;;
22138;SDS011;25815;52.582;13.408;2023-05-07T06:31:56;10.60;;;6.93;;
22138;SDS011;25815;52.582;13.408;2023-05-07T06:34:22;8.98;;;6.28;;
22138;SDS011;25815;52.582;13.408;2023-05-07T06:36:48;7.68;;;6.25;;
22138;SDS011;25815;52.582;13.408;2023-05-07T06:39:14;9.00;;;6.80;;
22138;SDS011;25815;52.582;13.408;2023-05-07T06:41:40;9.80;;;6.57;;
22138;SDS011;25815;52.582;13.408;2023-05-07T06:44:06;9.80;;;6.30;;
22138;SDS011;25815;52.582;13.408;2023-05-07T06:46:32;10.52;;;6.43;;
22138;SDS011;25815;52.582;13.408;2023-05-07T06:48:58;8.20;;;5.95;;
22138;SDS011;25815;52.582;13.408;2023-05-07T06:51:23;7.20;;;6.20;;
22138;SDS011;25815;52.582;13.408;2023-05-07T06:53:50;8.68;;;5.65;;
22138;SDS011;25815;52.582;13.408;2023-05-07T06:56:16;8.40;;;5.93;;
22138;SDS011;25815;52.582;13.408;2023-05-07T06:58:42;8.23;;;5.70;;
22138;SDS011;25815;52.582;13.408;2023-05-07T07:01:08;7.85;;;5.57;;
22138;SDS011;25815;52.582;13.408;2023-05-07T07:03:34;9.02;;;5.68;;
22138;SDS011;25815;52.582;13.408;2023-05-07T07:06:00;8.73;;;6.03;;
22138;SDS011;25815;52.582;13.408;2023-05-07T07:08:27;8.32;;;5.88;;
22138;SDS011;25815;52.582;13.408;2023-05-07T07:10:53;7.80;;;5.65;;
22138;SDS011;25815;52.582;13.408;2023-05-07T07:13:19;7.15;;;5.13;;
22138;SDS011;25815;52.582;13.408;2023-05-07T07:15:45;6.43;;;4.93;;
22138;SDS011;25815;52.582;13.408;2023-05-07T07:18:11;6.95;;;5.00;;
22138;SDS011;25815;52.582;13.408;2023-05-07T07:20:37;5.88;;;5.13;;
22138;SDS011;25815;52.582;13.408;2023-05-07T07:23:03;7.57;;;5.07;;
22138;SDS011;25815;52.582;13.408;2023-05-07T07:25:29;9.40;;;5.55;;
22138;SDS011;25815;52.582;13.408;2023-05-07T07:27:55;6.53;;;4.43;;
22138;SDS011;25815;52.582;13.408;2023-05-07T07:30:21;10.82;;;4.70;;
22138;SDS011;25815;52.582;13.408;2023-05-07T07:32:47;6.88;;;4.82;;
22138;SDS011;25815;52.582;13.408;2023-05-07T07:35:13;7.82;;;4.38;;
22138;SDS011;25815;52.582;13.408;2023-05-07T07:37:39;5.85;;;4.63;;
22138;SDS011;25815;52.582;13.408;2023-05-07T07:40:05;7.18;;;4.30;;
22138;SDS011;25815;52.582;13.408;2023-05-07T07:42:31;6.25;;;4.70;;
22138;SDS011;25815;52.582;13.408;2023-05-07T07:44:57;8.68;;;4.85;;
22138;SDS011;25815;52.582;13.408;2023-05-07T07:47:23;5.70;;;4.20;;
22138;SDS011;25815;52.582;13.408;2023-05-07T07:49:49;5.65;;;4.10;;
22138;SDS011;25815;52.582;13.408;2023-05-07T07:52:15;5.80;;;4.43;;
22138;SDS011;25815;52.582;13.408;2023-05-07T07:54:41;6.55;;;4.20;;
22138;SDS011;25815;52.582;13.408;2023-05-07T07:57:07;6.40;;;3.67;;
22138;SDS011;25815;52.582;13.408;2023-05-07T07:59:33;5.05;;;3.40;;
22138;SDS011;25815;52.582;13.408;2023-05-07T08:01:59;5.47;;;3.22;;
22138;SDS011;25815;52.582;13.408;2023-05-07T08:04:25;4.72;;;3.10;;
22138;SDS011;25815;52.582;13.408;2023-05-07T08:06:51;3.55;;;3.00;;
22138;SDS011;25815;52.582;13.408;2023-05-07T08:09:19;6.85;;;3.25;;
22138;SDS011;25815;52.582;13.408;2023-05-07T08:11:45;3.17;;;2.88;;
22138;SDS011;25815;52.582;13.408;2023-05-07T08:14:11;3.33;;;2.95;;
22138;SDS011;25815;52.582;13.408;2023-05-07T08:16:37;4.55;;;2.80;;
22138;SDS011;25815;52.582;13.408;2023-05-07T08:19:03;3.20;;;2.67;;
22138;SDS011;25815;52.582;13.408;2023-05-07T08:21:29;4.05;;;2.60;;
22138;SDS011;25815;52.582;13.408;2023-05-07T08:23:55;5.40;;;2.92;;
22138;SDS011;25815;52.582;13.408;2023-05-07T08:26:21;4.47;;;2.72;;
22138;SDS011;25815;52.582;13.408;2023-05-07T08:28:47;4.50;;;2.63;;
22138;SDS011;25815;52.582;13.408;2023-05-07T08:31:13;4.75;;;2.78;;
22138;SDS011;25815;52.582;13.408;2023-05-07T08:33:39;2.95;;;2.50;;
22138;SDS011;25815;52.582;13.408;2023-05-07T08:36:05;3.72;;;2.55;;
22138;SDS011;25815;52.582;13.408;2023-05-07T08:38:31;4.07;;;2.85;;
22138;SDS011;25815;52.582;13.408;2023-05-07T08:40:57;4.60;;;2.90;;
22138;SDS011;25815;52.582;13.408;2023-05-07T08:43:24;4.75;;;2.95;;
22138;SDS011;25815;52.582;13.408;2023-05-07T08:45:53;5.63;;;2.65;;
22138;SDS011;25815;52.582;13.408;2023-05-07T08:48:22;4.45;;;2.33;;
22138;SDS011;25815;52.582;13.408;2023-05-07T08:50:51;3.05;;;2.42;;
22138;SDS011;25815;52.582;13.408;2023-05-07T08:53:17;3.38;;;2.67;;
22138;SDS011;25815;52.582;13.408;2023-05-07T08:55:43;4.63;;;2.45;;
22138;SDS011;25815;52.582;13.408;2023-05-07T08:58:09;8.20;;;2.95;;
22138;SDS011;25815;52.582;13.408;2023-05-07T09:00:36;4.03;;;2.40;;
22138;SDS011;25815;52.582;13.408;2023-05-07T09:03:02;6.03;;;2.63;;
22138;SDS011;25815;52.582;13.408;2023-05-07T09:05:29;5.70;;;2.25;;
22138;SDS011;25815;52.582;13.408;2023-05-07T09:07:54;7.10;;;2.42;;
22138;SDS011;25815;52.582;13.408;2023-05-07T09:10:20;2.53;;;2.30;;
22138;SDS011;25815;52.582;13.408;2023-05-07T09:12:47;3.95;;;2.60;;
22138;SDS011;25815;52.582;13.408;2023-05-07T09:15:13;4.45;;;2.20;;
22138;SDS011;25815;52.582;13.408;2023-05-07T09:17:39;3.47;;;2.28;;
22138;SDS011;25815;52.582;13.408;2023-05-07T09:20:07;3.90;;;2.05;;
22138;SDS011;25815;52.582;13.408;2023-05-07T09:22:35;2.92;;;2.10;;
22138;SDS011;25815;52.582;13.408;2023-05-07T09:25:01;3.03;;;2.47;;
22138;SDS011;25815;52.582;13.408;2023-05-07T09:27:27;4.00;;;2.70;;
22138;SDS011;25815;52.582;13.408;2023-05-07T09:29:53;4.80;;;2.30;;
22138;SDS011;25815;52.582;13.408;2023-05-07T09:32:19;7.40;;;2.30;;
22138;SDS011;25815;52.582;13.408;2023-05-07T09:34:45;4.28;;;2.30;;
22138;SDS011;25815;52.582;13.408;2023-05-07T09:37:12;4.20;;;2.40;;
22138;SDS011;25815;52.582;13.408;2023-05-07T09:39:42;6.75;;;2.10;;
22138;SDS011;25815;52.582;13.408;2023-05-07T09:44:36;4.32;;;2.42;;
22138;SDS011;25815;52.582;13.408;2023-05-07T09:47:03;4.13;;;2.35;;
22138;SDS011;25815;52.582;13.408;2023-05-07T09:49:30;3.28;;;2.38;;
22138;SDS011;25815;52.582;13.408;2023-05-07T09:52:00;6.72;;;2.28;;
22138;SDS011;25815;52.582;13.408;2023-05-07T09:54:26;3.20;;;2.00;;
22138;SDS011;25815;52.582;13.408;2023-05-07T09:56:55;2.25;;;2.05;;
22138;SDS011;25815;52.582;13.408;2023-05-07T09:59:22;2.60;;;1.77;;
22138;SDS011;25815;52.582;13.408;2023-05-07T10:01:48;8.38;;;2.28;;
22138;SDS011;25815;52.582;13.408;2023-05-07T10:04:14;4.10;;;1.90;;
22138;SDS011;25815;52.582;13.408;2023-05-07T10:06:40;2.90;;;1.70;;
22138;SDS011;25815;52.582;13.408;2023-05-07T10:09:06;2.92;;;2.20;;
22138;SDS011;25815;52.582;13.408;2023-05-07T10:11:36;5.72;;;1.70;;
22138;SDS011;25815;52.582;13.408;2023-05-07T10:14:02;2.40;;;1.70;;
22138;SDS011;25815;52.582;13.408;2023-05-07T10:16:30;6.05;;;1.58;;
22138;SDS011;25815;52.582;13.408;2023-05-07T10:18:58;4.30;;;1.73;;
22138;SDS011;25815;52.582;13.408;2023-05-07T10:21:24;1.98;;;1.55;;
22138;SDS011;25815;52.582;13.408;2023-05-07T10:24:00;3.05;;;1.80;;
22138;SDS011;25815;52.582;13.408;2023-05-07T10:26:28;2.03;;;1.73;;
22138;SDS011;25815;52.582;13.408;2023-05-07T10:28:59;2.00;;;1.60;;
22138;SDS011;25815;52.582;13.408;2023-05-07T10:33:56;4.47;;;1.73;;
22138;SDS011;25815;52.582;13.408;2023-05-07T10:36:23;2.78;;;1.90;;
22138;SDS011;25815;52.582;13.408;2023-05-07T10:38:50;2.17;;;1.60;;
22138;SDS011;25815;52.582;13.408;2023-05-07T10:41:16;3.78;;;1.60;;
22138;SDS011;25815;52.582;13.408;2023-05-07T10:43:44;3.08;;;1.63;;
22138;SDS011;25815;52.582;13.408;2023-05-07T10:46:14;1.98;;;1.52;;
22138;SDS011;25815;52.582;13.408;2023-05-07T10:51:26;2.33;;;1.63;;
22138;SDS011;25815;52.582;13.408;2023-05-07T10:56:36;3.13;;;1.65;;
22138;SDS011;25815;52.582;13.408;2023-05-07T11:04:22;2.13;;;1.60;;
22138;SDS011;25815;52.582;13.408;2023-05-07T11:12:51;2.58;;;1.50;;
22138;SDS011;25815;52.582;13.408;2023-05-07T11:15:11;2.55;;;1.25;;
22138;SDS011;25815;52.582;13.408;2023-05-07T11:17:53;3.47;;;1.42;;
22138;SDS011;25815;52.582;13.408;2023-05-07T11:20:19;3.67;;;1.50;;
22138;SDS011;25815;52.582;13.408;2023-05-07T11:22:45;2.67;;;1.30;;
22138;SDS011;25815;52.582;13.408;2023-05-07T11:25:11;2.30;;;1.23;;
22138;SDS011;25815;52.582;13.408;2023-05-07T11:27:43;2.75;;;1.48;;
22138;SDS011;25815;52.582;13.408;2023-05-07T11:30:09;3.03;;;1.55;;
22138;SDS011;25815;52.582;13.408;2023-05-07T11:32:35;2.95;;;1.23;;
22138;SDS011;25815;52.582;13.408;2023-05-07T11:35:01;2.35;;;1.27;;
22138;SDS011;25815;52.582;13.408;2023-05-07T11:37:27;2.33;;;1.42;;
22138;SDS011;25815;52.582;13.408;2023-05-07T11:40:01;2.25;;;1.50;;
22138;SDS011;25815;52.582;13.408;2023-05-07T11:42:29;2.05;;;1.42;;
22138;SDS011;25815;52.582;13.408;2023-05-07T11:44:56;1.98;;;1.40;;
22138;SDS011;25815;52.582;13.408;2023-05-07T11:47:22;2.83;;;1.45;;
22138;SDS011;25815;52.582;13.408;2023-05-07T11:49:48;1.92;;;1.52;;
22138;SDS011;25815;52.582;13.408;2023-05-07T11:52:15;5.10;;;1.50;;
22138;SDS011;25815;52.582;13.408;2023-05-07T11:54:41;2.15;;;1.40;;
22138;SDS011;25815;52.582;13.408;2023-05-07T11:57:10;3.97;;;1.40;;
22138;SDS011;25815;52.582;13.408;2023-05-07T11:59:39;1.90;;;1.10;;
22138;SDS011;25815;52.582;13.408;2023-05-07T12:02:06;3.22;;;1.33;;
22138;SDS011;25815;52.582;13.408;2023-05-07T12:04:32;2.08;;;1.48;;
22138;SDS011;25815;52.582;13.408;2023-05-07T12:06:58;2.60;;;1.23;;
22138;SDS011;25815;52.582;13.408;2023-05-07T12:09:24;3.53;;;1.30;;
22138;SDS011;25815;52.582;13.408;2023-05-07T12:11:51;1.83;;;1.20;;
22138;SDS011;25815;52.582;13.408;2023-05-07T12:14:17;1.45;;;1.13;;
22138;SDS011;25815;52.582;13.408;2023-05-07T12:16:43;5.15;;;1.38;;
22138;SDS011;25815;52.582;13.408;2023-05-07T12:19:10;2.10;;;1.20;;
22138;SDS011;25815;52.582;13.408;2023-05-07T12:21:37;1.83;;;1.08;;
22138;SDS011;25815;52.582;13.408;2023-05-07T12:24:04;2.33;;;1.15;;
22138;SDS011;25815;52.582;13.408;2023-05-07T12:26:30;3.08;;;1.08;;
22138;SDS011;25815;52.582;13.408;2023-05-07T12:28:59;1.38;;;1.00;;
22138;SDS011;25815;52.582;13.408;2023-05-07T12:31:25;1.73;;;1.10;;
22138;SDS011;25815;52.582;13.408;2023-05-07T12:33:51;2.70;;;1.20;;
22138;SDS011;25815;52.582;13.408;2023-05-07T12:36:18;3.33;;;1.20;;
22138;SDS011;25815;52.582;13.408;2023-05-07T12:38:44;1.45;;;0.93;;
22138;SDS011;25815;52.582;13.408;2023-05-07T12:41:10;1.20;;;0.90;;
22138;SDS011;25815;52.582;13.408;2023-05-07T12:43:37;2.22;;;1.20;;
22138;SDS011;25815;52.582;13.408;2023-05-07T12:46:04;2.67;;;1.05;;
22138;SDS011;25815;52.582;13.408;2023-05-07T12:48:30;2.10;;;1.20;;
22138;SDS011;25815;52.582;13.408;2023-05-07T12:50:57;1.30;;;0.93;;
22138;SDS011;25815;52.582;13.408;2023-05-07T12:53:24;1.65;;;1.15;;
22138;SDS011;25815;52.582;13.408;2023-05-07T12:55:51;1.45;;;1.10;;
22138;SDS011;25815;52.582;13.408;2023-05-07T12:58:19;3.03;;;1.15;;
22138;SDS011;25815;52.582;13.408;2023-05-07T13:00:46;1.85;;;1.17;;
22138;SDS011;25815;52.582;13.408;2023-05-07T13:03:16;1.95;;;1.10;;
22138;SDS011;25815;52.582;13.408;2023-05-07T13:05:46;1.30;;;1.02;;
22138;SDS011;25815;52.582;13.408;2023-05-07T13:08:12;1.88;;;0.95;;
22138;SDS011;25815;52.582;13.408;2023-05-07T13:10:38;3.10;;;1.10;;
22138;SDS011;25815;52.582;13.408;2023-05-07T13:13:03;1.48;;;1.23;;
22138;SDS011;25815;52.582;13.408;2023-05-07T13:15:29;2.58;;;1.27;;
22138;SDS011;25815;52.582;13.408;2023-05-07T13:17:55;1.17;;;0.98;;
22138;SDS011;25815;52.582;13.408;2023-05-07T13:20:21;3.78;;;1.48;;
22138;SDS011;25815;52.582;13.408;2023-05-07T13:22:47;3.15;;;1.30;;
22138;SDS011;25815;52.582;13.408;2023-05-07T13:25:13;2.53;;;1.15;;
22138;SDS011;25815;52.582;13.408;2023-05-07T13:27:40;1.90;;;1.23;;
22138;SDS011;25815;52.582;13.408;2023-05-07T13:30:06;2.35;;;1.20;;
22138;SDS011;25815;52.582;13.408;2023-05-07T13:32:32;1.65;;;1.10;;
22138;SDS011;25815;52.582;13.408;2023-05-07T13:34:58;3.28;;;1.25;;
22138;SDS011;25815;52.582;13.408;2023-05-07T13:37:24;1.90;;;1.25;;
22138;SDS011;25815;52.582;13.408;2023-05-07T13:39:50;2.75;;;1.10;;
22138;SDS011;25815;52.582;13.408;2023-05-07T13:42:16;3.00;;;1.50;;
22138;SDS011;25815;52.582;13.408;2023-05-07T13:44:42;3.15;;;1.40;;
22138;SDS011;25815;52.582;13.408;2023-05-07T13:47:08;2.85;;;1.38;;
22138;SDS011;25815;52.582;13.408;2023-05-07T13:49:34;4.50;;;1.27;;
22138;SDS011;25815;52.582;13.408;2023-05-07T13:52:00;2.67;;;1.15;;
22138;SDS011;25815;52.582;13.408;2023-05-07T13:54:26;4.78;;;1.20;;
22138;SDS011;25815;52.582;13.408;2023-05-07T13:56:52;2.05;;;1.52;;
22138;SDS011;25815;52.582;13.408;2023-05-07T13:59:18;3.38;;;1.30;;
22138;SDS011;25815;52.582;13.408;2023-05-07T14:01:44;3.08;;;1.23;;
22138;SDS011;25815;52.582;13.408;2023-05-07T14:04:10;2.40;;;1.13;;
22138;SDS011;25815;52.582;13.408;2023-05-07T14:06:36;2.15;;;1.00;;
22138;SDS011;25815;52.582;13.408;2023-05-07T14:09:02;1.67;;;1.10;;
22138;SDS011;25815;52.582;13.408;2023-05-07T14:11:29;2.90;;;1.00;;
22138;SDS011;25815;52.582;13.408;2023-05-07T14:13:54;1.55;;;1.20;;
22138;SDS011;25815;52.582;13.408;2023-05-07T14:16:21;2.42;;;1.15;;
22138;SDS011;25815;52.582;13.408;2023-05-07T14:18:47;1.60;;;1.15;;
22138;SDS011;25815;52.582;13.408;2023-05-07T14:21:13;3.10;;;1.40;;
22138;SDS011;25815;52.582;13.408;2023-05-07T14:23:39;1.45;;;1.30;;
22138;SDS011;25815;52.582;13.408;2023-05-07T14:26:05;2.75;;;1.13;;
22138;SDS011;25815;52.582;13.408;2023-05-07T14:28:31;1.98;;;1.10;;
22138;SDS011;25815;52.582;13.408;2023-05-07T14:30:57;3.95;;;1.38;;
22138;SDS011;25815;52.582;13.408;2023-05-07T14:33:23;1.50;;;1.10;;
22138;SDS011;25815;52.582;13.408;2023-05-07T14:35:49;1.92;;;1.08;;
22138;SDS011;25815;52.582;13.408;2023-05-07T14:38:15;2.97;;;1.35;;
22138;SDS011;25815;52.582;13.408;2023-05-07T14:40:41;2.05;;;1.20;;
22138;SDS011;25815;52.582;13.408;2023-05-07T14:43:07;3.15;;;1.30;;
22138;SDS011;25815;52.582;13.408;2023-05-07T14:45:33;1.48;;;1.10;;
22138;SDS011;25815;52.582;13.408;2023-05-07T14:47:59;1.88;;;0.93;;